createdAt,value
2022-12-20T00:03:26.200Z,-1.10
2022-12-20T00:08:28.012Z,-1.10
2022-12-20T00:13:31.208Z,-1.10
2022-12-20T00:18:33.404Z,-1.10
2022-12-20T00:23:36.161Z,-1.20
2022-12-20T00:28:38.728Z,-1.20
2022-12-20T00:33:42.027Z,-1.10
2022-12-20T00:38:48.315Z,-1.10
2022-12-20T00:43:50.229Z,-1.20
2022-12-20T00:48:52.519Z,-1.20
2022-12-20T00:53:54.989Z,-1.20
2022-12-20T00:58:59.623Z,-1.10
2022-12-20T01:04:01.935Z,-1.20
2022-12-20T01:09:04.281Z,-1.20
2022-12-20T01:14:13.000Z,-1.20
2022-12-20T01:19:17.542Z,-1.10
2022-12-20T01:24:20.306Z,-1.20
2022-12-20T01:29:22.209Z,-1.20
2022-12-20T01:34:24.000Z,-1.20
2022-12-20T01:39:25.803Z,-1.20
2022-12-20T01:44:27.584Z,-1.20
2022-12-20T01:49:32.886Z,-1.20
2022-12-20T01:54:43.845Z,-1.20
2022-12-20T01:59:46.936Z,-1.30
2022-12-20T02:04:48.820Z,-1.30
2022-12-20T02:09:51.052Z,-1.30
2022-12-20T02:15:18.114Z,-1.30
2022-12-20T02:20:33.261Z,-1.30
2022-12-20T02:26:06.038Z,-1.30
2022-12-20T02:31:14.125Z,-1.30
2022-12-20T02:36:19.030Z,-1.30
2022-12-20T02:41:30.821Z,-1.30
2022-12-20T02:46:33.083Z,-1.30
2022-12-20T02:51:35.096Z,-1.30
2022-12-20T02:56:45.753Z,-1.30
2022-12-20T03:01:51.640Z,-1.30
2022-12-20T03:07:11.724Z,-1.30
2022-12-20T03:12:15.983Z,-1.30
2022-12-20T03:17:17.876Z,-1.30
2022-12-20T03:22:19.745Z,-1.30
2022-12-20T03:27:21.552Z,-1.20
2022-12-20T03:32:23.484Z,-1.30
2022-12-20T03:37:25.874Z,-1.30
2022-12-20T03:42:27.878Z,-1.20
2022-12-20T03:47:29.987Z,-1.20
2022-12-20T03:52:33.092Z,-1.20
2022-12-20T03:57:35.263Z,-1.20
2022-12-20T04:02:37.308Z,-1.20
2022-12-20T04:07:39.512Z,-1.20
2022-12-20T04:12:41.347Z,-1.30
2022-12-20T04:17:43.177Z,-1.20
2022-12-20T04:22:48.919Z,-1.20
2022-12-20T04:27:50.742Z,-1.20
2022-12-20T04:32:54.705Z,-1.20
2022-12-20T04:37:56.934Z,-1.10
2022-12-20T04:42:58.800Z,-1.20
2022-12-20T04:48:21.157Z,-1.10
2022-12-20T04:53:42.428Z,-1.20
2022-12-20T04:58:44.638Z,-1.10
2022-12-20T05:03:47.600Z,-1.10
2022-12-20T05:08:49.632Z,-1.10
2022-12-20T05:13:51.468Z,-1.10
2022-12-20T05:18:53.284Z,-1.10
2022-12-20T05:24:13.787Z,-1.10
2022-12-20T05:29:16.897Z,-1.10
2022-12-20T05:34:19.141Z,-1.10
2022-12-20T05:39:20.934Z,-1.10
2022-12-20T05:44:22.873Z,-1.10
2022-12-20T05:49:25.753Z,-1.10
2022-12-20T05:54:27.610Z,-1.10
2022-12-20T05:59:29.455Z,-1.10
2022-12-20T06:04:32.238Z,-1.10
2022-12-20T06:09:34.147Z,-1.10
2022-12-20T06:14:35.966Z,-1.20
2022-12-20T06:19:41.653Z,-1.10
2022-12-20T06:24:48.256Z,-1.10
2022-12-20T06:29:54.315Z,-1.10
2022-12-20T06:34:56.249Z,-1.10
2022-12-20T06:39:58.622Z,-1.10
2022-12-20T06:45:00.459Z,-1.10
2022-12-20T06:50:02.276Z,-1.10
2022-12-20T06:55:04.511Z,-1.10
2022-12-20T07:00:08.551Z,-1.10
2022-12-20T07:05:10.428Z,-1.10
2022-12-20T07:10:13.310Z,-1.10
2022-12-20T07:15:15.609Z,-1.10
2022-12-20T07:20:18.189Z,-1.10
2022-12-20T07:25:20.047Z,-1.10
2022-12-20T07:30:22.032Z,-1.10
2022-12-20T07:35:23.883Z,-1.10
2022-12-20T07:40:27.854Z,-1.10
2022-12-20T07:45:29.790Z,-1.10
2022-12-20T07:50:33.041Z,-1.10
2022-12-20T07:55:36.657Z,-1.10
2022-12-20T08:00:38.778Z,-1.10
2022-12-20T08:05:43.247Z,-1.00
2022-12-20T08:10:46.353Z,-1.00
2022-12-20T08:15:48.186Z,-1.00
2022-12-20T08:20:50.028Z,-1.00
2022-12-20T08:25:51.912Z,-1.00
2022-12-20T08:30:54.478Z,-1.00
2022-12-20T08:36:00.458Z,-1.00
2022-12-20T08:41:14.705Z,-1.00
2022-12-20T08:46:16.615Z,-1.00
2022-12-20T08:51:18.612Z,-1.00
2022-12-20T08:56:20.537Z,-1.00
2022-12-20T09:01:22.949Z,-1.00
2022-12-20T09:06:25.304Z,-1.00
2022-12-20T09:11:27.625Z,-1.00
2022-12-20T09:16:32.589Z,-1.00
2022-12-20T09:21:35.059Z,-1.00
2022-12-20T09:26:37.170Z,-1.00
2022-12-20T09:31:39.054Z,-0.90
2022-12-20T09:36:40.911Z,-0.90
2022-12-20T09:41:44.243Z,-0.90
2022-12-20T09:46:53.866Z,-0.90
2022-12-20T09:52:23.801Z,-0.90
2022-12-20T09:57:51.801Z,-0.80
2022-12-20T10:03:02.154Z,-0.80
2022-12-20T10:08:31.500Z,-0.80
2022-12-20T10:13:55.087Z,-0.80
2022-12-20T10:19:34.771Z,-0.80
2022-12-20T10:24:37.076Z,-0.80
2022-12-20T10:29:38.957Z,-0.80
2022-12-20T10:34:48.649Z,-0.80
2022-12-20T10:39:52.108Z,-0.80
2022-12-20T10:44:54.979Z,-0.80
2022-12-20T10:50:09.454Z,-0.80
2022-12-20T10:55:35.960Z,-0.90
2022-12-20T11:00:38.398Z,-0.90
2022-12-20T11:05:40.254Z,-0.90
2022-12-20T11:10:42.170Z,-0.90
2022-12-20T11:15:49.330Z,-0.90
2022-12-20T11:21:00.961Z,-0.90
2022-12-20T11:26:31.510Z,-0.90
2022-12-20T11:31:48.647Z,-0.90
2022-12-20T11:37:19.396Z,-0.90
2022-12-20T11:42:29.002Z,-0.90
2022-12-20T11:47:32.534Z,-0.90
2022-12-20T11:52:50.097Z,-0.80
2022-12-20T12:03:34.777Z,-0.80
2022-12-20T12:08:59.565Z,-0.90
2022-12-20T12:14:03.716Z,-0.80
2022-12-20T12:19:09.374Z,-0.80
2022-12-20T12:24:33.576Z,-0.90
2022-12-20T12:29:39.500Z,-0.80
2022-12-20T12:35:13.341Z,-0.90
2022-12-20T12:40:47.417Z,-0.90
2022-12-20T12:45:57.455Z,-0.90
2022-12-20T12:50:59.802Z,-0.90
2022-12-20T12:56:43.241Z,-0.80
2022-12-20T13:02:16.586Z,-0.80
2022-12-20T13:07:34.199Z,-0.80
2022-12-20T13:12:39.195Z,-0.80
2022-12-20T13:17:51.649Z,-0.80
2022-12-20T13:23:07.407Z,-0.80
2022-12-20T13:28:22.846Z,-0.80
2022-12-20T13:33:41.911Z,-0.80
2022-12-20T13:38:44.885Z,-0.80
2022-12-20T13:43:47.328Z,-0.80
2022-12-20T13:49:03.179Z,-0.80
2022-12-20T13:54:07.196Z,-0.80
2022-12-20T13:59:31.341Z,-0.80
2022-12-20T14:04:42.137Z,-0.80
2022-12-20T14:09:47.590Z,-0.80
2022-12-20T14:14:50.978Z,-0.80
2022-12-20T14:20:34.544Z,-0.80
2022-12-20T14:25:39.841Z,-0.90
2022-12-20T14:30:43.100Z,-0.80
2022-12-20T14:35:48.700Z,-0.80
2022-12-20T14:40:54.135Z,-0.80
2022-12-20T14:46:19.613Z,-0.90
2022-12-20T14:51:21.988Z,-0.80
2022-12-20T14:56:31.721Z,-0.80
2022-12-20T15:01:38.517Z,-0.90
2022-12-20T15:06:45.893Z,-0.80
2022-12-20T15:11:48.375Z,-0.90
2022-12-20T15:16:50.296Z,-0.90
2022-12-20T15:21:53.210Z,-0.90
2022-12-20T15:26:56.039Z,-0.90
2022-12-20T15:32:15.422Z,-0.90
2022-12-20T15:37:18.634Z,-0.90
2022-12-20T15:42:21.180Z,-0.90
2022-12-20T15:47:23.606Z,-0.90
2022-12-20T15:52:25.717Z,-0.90
2022-12-20T15:57:28.978Z,-0.90
2022-12-20T16:02:34.815Z,-0.90
2022-12-20T16:07:36.796Z,-0.90
2022-12-20T16:12:38.897Z,-0.90
2022-12-20T16:17:40.889Z,-0.90
2022-12-20T16:22:42.763Z,-0.90
2022-12-20T16:27:44.656Z,-0.90
2022-12-20T16:32:46.544Z,-0.90
2022-12-20T16:37:52.149Z,-0.90
2022-12-20T16:42:54.465Z,-0.90
2022-12-20T16:47:57.187Z,-0.80
2022-12-20T16:53:00.116Z,-0.90
2022-12-20T16:58:02.769Z,-0.90
2022-12-20T17:03:04.759Z,-0.90
2022-12-20T17:13:26.326Z,-0.80
2022-12-20T17:18:28.144Z,-0.90
2022-12-20T17:23:30.806Z,-0.80
2022-12-20T17:28:32.947Z,-0.80
2022-12-20T17:33:34.818Z,-0.80
2022-12-20T17:38:37.078Z,-0.80
2022-12-20T17:43:38.893Z,-0.80
2022-12-20T17:48:43.917Z,-0.90
2022-12-20T17:53:47.227Z,-0.80
2022-12-20T17:58:49.462Z,-0.90
2022-12-20T18:04:03.574Z,-0.90
2022-12-20T18:09:08.142Z,-0.80
2022-12-20T18:14:10.569Z,-0.80
2022-12-20T18:19:18.688Z,-0.80
2022-12-20T18:24:21.555Z,-0.80
2022-12-20T18:29:23.502Z,-0.80
2022-12-20T18:34:25.334Z,-0.80
2022-12-20T18:39:27.413Z,-0.80
2022-12-20T18:44:29.373Z,-0.80
2022-12-20T18:49:31.869Z,-0.80
2022-12-20T18:54:33.832Z,-0.80
2022-12-20T18:59:36.133Z,-0.80
2022-12-20T19:04:37.959Z,-0.80
2022-12-20T19:09:39.873Z,-0.80
2022-12-20T19:14:41.732Z,-0.80
2022-12-20T19:19:43.582Z,-0.80
2022-12-20T19:24:45.513Z,-0.80
2022-12-20T19:29:47.573Z,-0.80
2022-12-20T19:34:49.395Z,-0.80
2022-12-20T19:39:51.444Z,-0.80
2022-12-20T19:44:53.371Z,-0.80
2022-12-20T19:49:55.320Z,-0.80
2022-12-20T19:54:57.460Z,-0.80
2022-12-20T19:59:59.295Z,-0.80
2022-12-20T20:05:01.638Z,-0.80
2022-12-20T20:10:09.638Z,-0.80
2022-12-20T20:15:11.589Z,-0.70
2022-12-20T20:20:14.001Z,-0.70
2022-12-20T20:25:16.238Z,-0.70
2022-12-20T20:30:21.206Z,-0.80
2022-12-20T20:35:24.396Z,-0.70
2022-12-20T20:40:27.465Z,-0.80
2022-12-20T20:45:29.675Z,-0.70
2022-12-20T20:50:32.087Z,-0.70
2022-12-20T20:55:34.924Z,-0.70
2022-12-20T21:00:37.998Z,-0.70
2022-12-20T21:11:06.953Z,-0.70
2022-12-20T21:16:09.678Z,-0.70
2022-12-20T21:21:15.819Z,-0.70
2022-12-20T21:26:20.002Z,-0.70
2022-12-20T21:31:22.007Z,-0.70
2022-12-20T21:36:24.499Z,-0.70
2022-12-20T21:41:27.856Z,-0.70
2022-12-20T21:46:31.953Z,-0.70
2022-12-20T21:51:36.551Z,-0.70
2022-12-20T21:56:39.565Z,-0.70
2022-12-20T22:01:47.493Z,-0.70
2022-12-20T22:06:52.179Z,-0.70
2022-12-20T22:11:54.461Z,-0.70
2022-12-20T22:16:56.546Z,-0.70
2022-12-20T22:22:01.161Z,-0.70
2022-12-20T22:27:09.379Z,-0.70
2022-12-20T22:32:13.269Z,-0.70
2022-12-20T22:37:15.266Z,-0.70
2022-12-20T22:42:17.232Z,-0.70
2022-12-20T22:47:19.144Z,-0.60
2022-12-20T22:52:21.819Z,-0.60
2022-12-20T22:57:23.882Z,-0.60
2022-12-20T23:02:26.775Z,-0.70
2022-12-20T23:07:28.881Z,-0.60
2022-12-20T23:12:49.589Z,-0.60
2022-12-20T23:17:51.455Z,-0.60
2022-12-20T23:22:53.258Z,-0.60
2022-12-20T23:27:55.811Z,-0.70
2022-12-20T23:32:57.771Z,-0.60
2022-12-20T23:37:59.664Z,-0.70
2022-12-20T23:43:02.422Z,-0.70
2022-12-20T23:48:04.506Z,-0.70
2022-12-20T23:53:06.884Z,-0.70
2022-12-20T23:58:08.722Z,-0.70
